Meteo Giornale » Osservazioni meteo Canada » Greenwood N S
ore: 05:00 - Osservazioni Meteo Greenwood N S
Lat. 44° 59' N Lon. 64° 55' W Alt. 28 metri s.l.m.
11 °C
Molto Nuvoloso
Temp. 24 Ore
11 °C
21 °C
Nord
3.7 Km/h
Dew point 10 °C
Umidità 93 %
Visibilità 24 Km
Il sole sorge alle ore 06:42
Il sole tramonta alle ore 19:57
| Data e Ora | Cielo e Fenomeni | T °C | DP °C | Um. % | Pres. hPa | Vis. km | Vento km/h | |
|---|---|---|---|---|---|---|---|---|
| Oggi h: 05:00 | Molto Nuvoloso | 11 | 10 | 93 | 1017 | 24 | N 3.7 | |
| Oggi h: 04:00 | Nuvoloso | 11 | 10 | 93 | 1017 | 24 | N 0 | |
| Oggi h: 03:00 | Sereno | 12 | 10 | 87 | 1017 | 24 | N 5.5 | |
| Oggi h: 02:00 | Sereno | 11 | 10 | 93 | 1017 | 24 | N 0 | |
| Oggi h: 01:00 | Nuvoloso | 12 | 11 | 93 | 1017 | 24 | N 5.5 | |
| Oggi h: 00:00 | Nuvoloso | 13 | 11 | 87 | 1017 | 24 | N 5.5 | |
| Ieri h: 23:00 | Molto Nuvoloso | 14 | 11 | 82 | 1017 | 24 | O/SO 7.4 | |
| Ieri h: 22:00 | Molto Nuvoloso | 16 | 11 | 72 | 1017 | 24 | S/SO 7.4 | |
| Ieri h: 21:00 | Molto Nuvoloso | 16 | 12 | 77 | 1017 | 24 | SO 7.4 | |
| Ieri h: 20:00 | Molto Nuvoloso | 18 | 11 | 63 | 1016 | 24 | O/SO 9.3 | |
| Ieri h: 19:00 | Nuvoloso | 20 | 11 | 56 | 1016 | 24 | O/SO 11.1 | |
| Ieri h: 18:00 | Poco Nuvoloso | 21 | 11 | 52 | 1016 | 24 | O 18.5 | |
| Ieri h: 17:00 | Poco Nuvoloso | 21 | 11 | 52 | 1016 | 24 | O/SO 22.2 | |
| Ieri h: 16:00 | Poco Nuvoloso | 21 | 11 | 52 | 1016 | 24 | O 18.5 | |
| Ieri h: 15:00 | Poco Nuvoloso | 20 | 11 | 56 | 1016 | 24 | O/NO 18.5 | |
| Ieri h: 14:00 | Poco Nuvoloso | 20 | 11 | 56 | 1016 | 24 | O/NO 16.7 | |
| Ieri h: 13:00 | Poco Nuvoloso | 19 | 10 | 55 | 1016 | 24 | O 18.5 | |
| Ieri h: 12:00 | Poco Nuvoloso | 19 | 10 | 55 | 1016 | 24 | O/NO 14.8 | |
| Ieri h: 11:00 | Poco Nuvoloso | 18 | 11 | 63 | 1015 | 24 | O/NO 16.7 | |
| Ieri h: 10:00 | Poco Nuvoloso | 16 | 11 | 72 | 1015 | 24 | O/NO 13 | |
| Ieri h: 09:00 | Poco Nuvoloso | 15 | 12 | 82 | 1015 | 24 | O/NO 18.5 | |
| Ieri h: 08:00 | Poco Nuvoloso | 14 | 13 | 93 | 1015 | 24 | O/NO 13 | |
| Ieri h: 07:00 | Poco Nuvoloso | 13 | 12 | 93 | 1014 | 24 | O 9.3 | |
| Ieri h: 06:00 | Poco Nuvoloso | 14 | 13 | 93 | 1013 | 24 | O 9.3 | |



